Time;durP1;ratioP1;P1;durP2;ratioP2;P2;SDS_P1;SDS_P2;PMS_P1;PMS_P2;Temp;Humidity;BMP_temperature;BMP_pressure;BME280_temperature;BME280_humidity;BME280_pressure;Samples;Min_cycle;Max_cycle;Signal;HPM_P1;HPM_P2
2022/04/10 00:02:52;;;;;;;11.02;4.60;;;;;;;3.48;89.87;101879.66;10418082;28;20543;-73
2022/04/10 00:07:52;;;;;;;6.45;3.70;;;;;;;3.49;89.58;101875.16;10419996;28;20156;-74
2022/04/10 00:12:53;;;;;;;10.88;4.32;;;;;;;3.50;90.51;101885.72;10416787;28;20061;-73
2022/04/10 00:17:53;;;;;;;10.73;4.63;;;;;;;3.54;90.25;101866.72;10415696;28;20034;-74
2022/04/10 00:22:53;;;;;;;10.65;3.88;;;;;;;3.59;90.23;101869.88;10416509;28;20033;-73
2022/04/10 00:27:54;;;;;;;4.95;2.75;;;;;;;3.64;91.01;101865.00;10417338;28;20030;-73
2022/04/10 00:32:54;;;;;;;10.27;2.90;;;;;;;3.68;91.06;101861.06;10417004;28;20473;-73
2022/04/10 00:37:55;;;;;;;5.55;2.67;;;;;;;3.62;90.91;101862.44;10399681;28;20026;-73
2022/04/10 00:42:55;;;;;;;2.35;2.00;;;;;;;3.57;90.38;101855.75;10419006;28;20057;-73
2022/04/10 00:47:56;;;;;;;6.45;3.08;;;;;;;3.49;90.02;101854.56;10416848;28;20056;-73
2022/04/10 00:52:57;;;;;;;4.75;3.30;;;;;;;3.39;89.95;101866.19;10416054;28;20092;-73
2022/04/10 00:57:58;;;;;;;9.35;3.00;;;;;;;3.33;90.49;101850.63;10415486;28;20036;-73
2022/04/10 01:02:58;;;;;;;4.70;2.88;;;;;;;3.29;90.29;101860.75;10416115;28;20137;-74
2022/04/10 01:07:59;;;;;;;3.08;2.30;;;;;;;3.20;90.10;101858.81;10415789;28;20068;-73
2022/04/10 01:13:00;;;;;;;8.70;2.95;;;;;;;3.25;90.30;101864.63;10415566;28;20030;-73
2022/04/10 01:18:00;;;;;;;7.13;2.63;;;;;;;3.20;90.24;101872.19;10396993;28;20033;-73
2022/04/10 01:23:01;;;;;;;10.60;2.55;;;;;;;3.18;90.30;101874.13;10414047;28;20393;-73
2022/04/10 01:28:01;;;;;;;16.58;4.45;;;;;;;3.17;90.52;101881.31;10414987;28;20033;-73
2022/04/10 01:33:02;;;;;;;7.28;3.65;;;;;;;3.16;90.12;101884.97;10413065;28;20038;-73
2022/04/10 01:38:02;;;;;;;8.18;2.72;;;;;;;3.10;89.76;101879.28;10430224;28;20115;-74
2022/04/10 01:43:03;;;;;;;7.07;2.45;;;;;;;3.04;90.03;101880.63;10430750;28;20060;-74
2022/04/10 01:48:04;;;;;;;6.68;2.75;;;;;;;3.06;90.48;101875.13;10414297;28;20117;-73
2022/04/10 01:53:05;;;;;;;13.18;3.10;;;;;;;2.95;90.28;101879.53;10413680;28;20099;-73
2022/04/10 01:58:05;;;;;;;8.00;3.63;;;;;;;2.96;90.38;101883.06;10414449;28;20116;-73
2022/04/10 02:03:06;;;;;;;22.20;3.83;;;;;;;2.99;90.85;101890.84;10414382;28;20124;-73
2022/04/10 02:08:06;;;;;;;9.93;4.60;;;;;;;3.01;90.34;101889.75;10412816;28;20131;-73
2022/04/10 02:13:09;;;;;;;2.78;2.58;;;;;;;3.01;90.46;101887.06;10414358;28;20045;-73
2022/04/10 02:18:10;;;;;;;4.45;2.97;;;;;;;3.06;90.29;101893.88;10412125;28;20477;-74
2022/04/10 02:23:10;;;;;;;3.47;2.72;;;;;;;3.10;90.71;101893.50;10414621;28;20034;-73
2022/04/10 02:28:10;;;;;;;7.70;2.15;;;;;;;3.07;90.34;101896.44;10414913;28;20069;-73
2022/04/10 02:33:11;;;;;;;5.43;2.60;;;;;;;3.16;91.22;101900.16;10414025;28;20397;-75
2022/04/10 02:38:11;;;;;;;9.30;4.68;;;;;;;3.35;91.46;101886.13;10412733;28;20061;-73
2022/04/10 02:43:13;;;;;;;8.27;2.40;;;;;;;3.53;92.02;101898.00;10412788;28;20136;-73
2022/04/10 02:48:14;;;;;;;10.07;2.25;;;;;;;3.69;92.12;101895.75;10417716;28;20381;-73
2022/04/10 02:53:14;;;;;;;23.08;3.22;;;;;;;3.70;91.62;101893.91;10422279;28;20091;-73
2022/04/10 02:58:15;;;;;;;2.50;2.30;;;;;;;3.72;91.98;101889.28;10422467;28;20443;-74
2022/04/10 03:03:15;;;;;;;5.10;2.65;;;;;;;3.62;91.45;101901.75;10421007;28;20404;-73
2022/04/10 03:08:17;;;;;;;8.73;3.60;;;;;;;3.47;91.00;101904.72;10420259;28;20072;-73
2022/04/10 03:13:18;;;;;;;7.20;3.53;;;;;;;3.29;90.68;101902.69;10403709;28;20040;-73
2022/04/10 03:18:18;;;;;;;5.13;2.28;;;;;;;3.26;91.05;101910.03;10419551;28;20041;-73
2022/04/10 03:23:19;;;;;;;5.40;2.45;;;;;;;3.22;91.10;101907.69;10419764;28;20124;-73
2022/04/10 03:28:19;;;;;;;9.63;2.75;;;;;;;3.25;91.33;101911.00;10418358;28;20117;-73
2022/04/10 03:33:19;;;;;;;15.23;3.95;;;;;;;3.32;91.00;101922.06;10419320;28;20113;-73
2022/04/10 03:38:20;;;;;;;12.98;2.47;;;;;;;3.25;90.62;101926.19;10417350;28;20469;-73
2022/04/10 03:43:20;;;;;;;10.65;3.28;;;;;;;3.20;90.76;101923.06;10417929;28;20393;-73
2022/04/10 03:48:21;;;;;;;4.15;2.53;;;;;;;3.10;90.88;101919.41;10416802;28;20397;-73
2022/04/10 03:53:21;;;;;;;14.55;3.90;;;;;;;2.96;90.89;101921.34;10420134;28;20168;-73
2022/04/10 03:58:22;;;;;;;7.55;2.30;;;;;;;2.95;91.00;101927.69;10418457;28;20407;-73
2022/04/10 04:03:22;;;;;;;5.18;3.30;;;;;;;2.89;90.71;101930.00;10416905;28;20120;-74
2022/04/10 04:08:23;;;;;;;3.47;2.15;;;;;;;2.79;90.46;101937.91;10418185;28;20037;-73
2022/04/10 04:13:23;;;;;;;10.98;2.42;;;;;;;2.76;90.21;101936.31;10416693;28;20457;-73
2022/04/10 04:18:24;;;;;;;7.63;2.30;;;;;;;2.71;90.68;101941.22;10417039;28;20037;-73
2022/04/10 04:23:24;;;;;;;8.60;2.30;;;;;;;2.72;91.52;101950.06;10418173;28;20038;-73
2022/04/10 04:28:25;;;;;;;9.57;2.15;;;;;;;2.74;91.31;101950.78;10417113;28;20037;-73
2022/04/10 04:33:25;;;;;;;5.57;2.63;;;;;;;2.73;90.94;101952.63;10417360;28;20069;-73
2022/04/10 04:38:25;;;;;;;8.48;3.25;;;;;;;2.75;90.76;101960.53;10417037;28;20033;-73
2022/04/10 04:43:26;;;;;;;4.95;3.05;;;;;;;2.70;90.79;101970.72;10416726;28;20088;-73
2022/04/10 04:48:26;;;;;;;7.90;3.30;;;;;;;2.58;90.51;101969.84;10416831;28;20091;-73
2022/04/10 04:53:27;;;;;;;10.90;4.00;;;;;;;2.61;91.00;101976.78;10416702;28;20049;-73
2022/04/10 04:58:27;;;;;;;11.30;2.80;;;;;;;2.78;92.37;101976.34;10398457;28;20057;-73
2022/04/10 05:03:27;;;;;;;12.02;3.08;;;;;;;2.95;91.81;101983.03;10416002;28;20041;-73
2022/04/10 05:08:28;;;;;;;6.07;2.33;;;;;;;3.02;92.01;101984.25;10415911;28;20095;-73
2022/04/10 05:13:28;;;;;;;2.35;2.25;;;;;;;3.12;91.53;101987.03;10415865;28;20037;-73
2022/04/10 05:18:29;;;;;;;2.80;2.03;;;;;;;3.21;91.60;101989.81;10415377;28;20116;-73
2022/04/10 05:23:29;;;;;;;4.90;2.72;;;;;;;3.41;92.21;101992.72;10415563;28;20392;-73
2022/04/10 05:28:31;;;;;;;5.80;2.58;;;;;;;3.46;91.63;101999.41;10415200;28;20041;-73
2022/04/10 05:33:35;;;;;;;2.60;2.38;;;;;;;3.52;91.26;102013.31;10415311;28;20061;-73
2022/04/10 05:38:35;;;;;;;2.92;2.72;;;;;;;3.67;91.27;102012.91;10415072;28;20068;-73
2022/04/10 05:43:35;;;;;;;7.10;2.83;;;;;;;3.80;91.99;102017.22;10415377;28;20041;-74
2022/04/10 05:48:36;;;;;;;1.90;1.70;;;;;;;3.89;91.56;102017.34;10413217;28;20080;-73
2022/04/10 05:53:36;;;;;;;4.63;2.80;;;;;;;4.13;91.61;102024.34;10414641;28;20042;-73
2022/04/10 05:58:37;;;;;;;6.65;2.83;;;;;;;5.71;91.73;102030.28;10414609;28;20565;-74
2022/04/10 06:03:38;;;;;;;6.13;2.40;;;;;;;7.12;90.33;102022.59;10420225;28;20436;-74
2022/04/10 06:08:39;;;;;;;4.32;2.65;;;;;;;8.24;89.40;102029.59;10425724;28;20033;-74
2022/04/10 06:13:39;;;;;;;1.48;1.38;;;;;;;9.13;87.99;102040.25;10426256;28;20033;-74
2022/04/10 06:18:39;;;;;;;1.60;1.48;;;;;;;9.69;88.21;102040.66;10426669;28;20132;-74
2022/04/10 06:23:40;;;;;;;16.92;2.33;;;;;;;10.03;91.12;102037.91;10440601;28;20038;-74
2022/04/10 06:28:40;;;;;;;5.70;1.95;;;;;;;10.65;89.15;102048.28;10443051;28;20037;-74
2022/04/10 06:33:41;;;;;;;1.40;1.15;;;;;;;11.04;89.38;102050.28;10440750;28;20091;-74
2022/04/10 06:38:41;;;;;;;7.40;2.17;;;;;;;11.58;88.82;102042.31;10439044;28;20049;-74
2022/04/10 06:43:42;;;;;;;1.60;1.50;;;;;;;10.55;91.20;102050.31;10438672;28;20048;-73
2022/04/10 06:48:42;;;;;;;5.70;2.55;;;;;;;11.12;92.72;102058.41;10415518;28;20068;-74
2022/04/10 06:53:43;;;;;;;2.85;2.13;;;;;;;10.80;95.58;102070.13;10428474;28;20072;-74
2022/04/10 06:58:43;;;;;;;13.10;2.60;;;;;;;10.91;94.05;102067.94;10425303;28;20465;-73
2022/04/10 07:03:44;;;;;;;8.88;2.88;;;;;;;11.96;94.83;102067.75;10426500;28;20113;-73
2022/04/10 07:08:44;;;;;;;7.05;2.85;;;;;;;12.78;93.32;102078.06;10432599;28;20049;-74
2022/04/10 07:13:45;;;;;;;5.10;2.40;;;;;;;13.51;91.88;102079.22;10417872;28;20037;-75
2022/04/10 07:18:45;;;;;;;2.83;1.35;;;;;;;14.04;92.03;102082.63;10417406;28;20125;-74
2022/04/10 07:23:46;;;;;;;8.82;2.17;;;;;;;14.68;89.91;102081.00;10423116;28;20037;-74
2022/04/10 07:28:48;;;;;;;2.25;1.58;;;;;;;15.02;91.15;102089.25;10441388;28;20161;-76
2022/04/10 07:33:48;;;;;;;2.50;1.27;;;;;;;15.57;89.15;102082.09;10448078;28;20397;-75
2022/04/10 07:38:49;;;;;;;2.08;1.35;;;;;;;15.91;90.80;102085.84;10449016;28;20075;-75
2022/04/10 07:43:49;;;;;;;9.07;1.60;;;;;;;14.86;94.48;102101.31;10445366;28;20040;-74
2022/04/10 07:48:50;;;;;;;1.63;1.50;;;;;;;13.93;95.27;102123.97;10443055;28;20030;-75
2022/04/10 07:53:53;;;;;;;4.82;1.50;;;;;;;14.00;95.16;102116.72;10446062;28;20056;-75
2022/04/10 07:58:54;;;;;;;4.60;2.25;;;;;;;14.94;93.21;102115.88;10452937;28;20033;-75
2022/04/10 08:03:54;;;;;;;7.22;2.10;;;;;;;16.04;92.50;102115.94;10427998;28;20040;-75
2022/04/10 08:08:54;;;;;;;13.85;1.83;;;;;;;16.26;87.66;102119.38;10440937;28;20025;-74
2022/04/10 08:13:55;;;;;;;1.55;1.20;;;;;;;14.12;94.35;102136.97;10439169;28;20040;-74
2022/04/10 08:18:56;;;;;;;10.63;1.63;;;;;;;13.66;94.86;102139.94;10445930;28;20034;-74
2022/04/10 08:23:56;;;;;;;4.97;2.17;;;;;;;14.21;90.26;102142.34;10446147;28;20037;-74
2022/04/10 08:28:56;;;;;;;1.20;1.20;;;;;;;12.68;90.15;102145.41;10443216;28;20037;-74
2022/04/10 08:33:57;;;;;;;2.85;1.52;;;;;;;11.77;89.94;102150.47;10399294;28;20057;-74
2022/04/10 08:38:58;;;;;;;3.10;1.90;;;;;;;13.30;88.70;102153.41;10434801;28;20125;-75
2022/04/10 08:44:00;;;;;;;1.88;1.25;;;;;;;15.70;86.84;102144.16;10443870;28;20040;-75
2022/04/10 08:49:01;;;;;;;0.90;0.90;;;;;;;17.11;83.21;102147.13;10430666;28;20112;-75
2022/04/10 08:54:02;;;;;;;11.18;1.65;;;;;;;17.87;82.43;102152.09;10437121;28;20040;-74
2022/04/10 08:59:02;;;;;;;2.33;1.35;;;;;;;18.12;78.30;102146.75;10449622;28;20466;-74
2022/04/10 09:04:03;;;;;;;3.35;2.35;;;;;;;18.35;73.78;102137.97;10428920;28;20041;-75
2022/04/10 09:09:14;;;;;;;1.60;1.50;;;;;;;18.75;78.21;102134.16;10420608;28;20060;-76
2022/04/10 09:14:21;;;;;;;1.60;1.50;;;;;;;18.27;78.30;102146.44;10416030;28;20025;-76
2022/04/10 09:19:22;;;;;;;1.73;1.60;;;;;;;16.71;81.37;102146.19;10417958;28;20533;-75
2022/04/10 09:24:22;;;;;;;6.35;1.33;;;;;;;16.06;82.43;102143.06;10417200;28;20087;-76
2022/04/10 09:29:24;;;;;;;3.22;1.65;;;;;;;17.99;78.69;102154.16;10413736;28;20080;-76
2022/04/10 09:34:25;;;;;;;2.20;2.00;;;;;;;18.95;70.33;102154.09;10413232;28;20457;-76
2022/04/10 09:39:32;;;;;;;9.73;1.90;;;;;;;19.72;67.11;102151.91;10414928;28;20057;-76
2022/04/10 09:44:34;;;;;;;1.52;1.42;;;;;;;20.10;69.35;102148.09;10430255;28;20536;-76
2022/04/10 09:49:35;;;;;;;1.95;1.42;;;;;;;20.18;66.43;102152.44;10413633;28;20389;-77
2022/04/10 09:54:37;;;;;;;1.95;1.73;;;;;;;20.80;68.91;102153.06;10415308;28;20466;-77
2022/04/10 09:59:43;;;;;;;2.55;2.17;;;;;;;20.77;57.84;102149.94;10422947;28;20436;-77
2022/04/10 10:04:44;;;;;;;2.43;1.67;;;;;;;20.80;64.35;102149.47;10421575;28;20057;-77
2022/04/10 10:09:48;;;;;;;1.38;1.38;;;;;;;19.92;55.14;102145.34;10423100;28;20087;-77
2022/04/10 10:14:49;;;;;;;1.85;1.63;;;;;;;20.03;60.11;102147.31;10420501;28;20029;-77
2022/04/10 10:19:49;;;;;;;3.60;2.20;;;;;;;20.64;60.82;102138.06;10404246;28;20037;-77
2022/04/10 10:25:03;;;;;;;7.68;2.45;;;;;;;21.69;58.58;102143.94;10419547;28;20034;-77
2022/04/10 10:30:18;;;;;;;3.00;2.22;;;;;;;20.56;64.48;102146.66;10436891;28;20040;-77
2022/04/10 10:35:32;;;;;;;1.17;1.00;;;;;;;20.15;35.93;102145.47;10421342;28;20037;-76
2022/04/10 10:40:33;;;;;;;1.33;1.33;;;;;;;20.07;43.03;102148.56;10436715;28;20045;-76
2022/04/10 10:45:41;;;;;;;2.25;2.15;;;;;;;20.50;49.98;102147.56;10419940;28;20041;-76
2022/04/10 10:50:42;;;;;;;1.65;1.55;;;;;;;21.39;53.63;102150.44;10421031;28;20095;-76
2022/04/10 10:55:43;;;;;;;4.65;2.38;;;;;;;21.56;45.92;102143.09;10423504;28;20049;-75
2022/04/10 11:00:44;;;;;;;4.43;1.98;;;;;;;21.52;45.50;102130.06;10395416;28;20115;-75
2022/04/10 11:05:45;;;;;;;1.58;1.48;;;;;;;21.99;46.99;102127.22;10457676;28;20037;-76
2022/04/10 11:10:52;;;;;;;2.20;1.77;;;;;;;20.72;52.06;102130.56;10477966;28;20029;-75
2022/04/10 11:15:53;;;;;;;0.98;0.98;;;;;;;19.46;39.32;102125.53;10475416;28;20095;-75
2022/04/10 11:20:54;;;;;;;1.58;1.48;;;;;;;19.72;47.92;102120.84;10470369;28;20041;-75
2022/04/10 11:26:01;;;;;;;6.32;1.92;;;;;;;18.64;48.81;102116.50;10467998;28;20490;-75
2022/04/10 11:31:02;;;;;;;7.72;1.48;;;;;;;17.37;56.24;102105.19;10444833;28;20041;-75
2022/04/10 11:36:02;;;;;;;2.35;0.85;;;;;;;18.66;34.85;102103.38;10423546;28;20041;-75
2022/04/10 11:41:03;;;;;;;1.48;1.38;;;;;;;18.98;36.74;102090.47;10450501;28;20045;-76
2022/04/10 11:46:03;;;;;;;1.38;1.27;;;;;;;20.49;44.14;102095.53;10456619;28;20085;-76
2022/04/10 11:51:07;;;;;;;2.30;1.95;;;;;;;21.40;44.39;102090.63;10424396;28;20040;-75
2022/04/10 11:56:07;;;;;;;1.35;1.35;;;;;;;21.85;43.36;102093.53;10421233;28;20061;-76
2022/04/10 12:01:08;;;;;;;1.48;1.45;;;;;;;22.48;40.70;102095.38;10435253;28;20392;-75
2022/04/10 12:06:09;;;;;;;2.53;1.58;;;;;;;21.51;27.85;102098.06;10423297;28;20095;-75
2022/04/10 12:11:10;;;;;;;1.98;1.88;;;;;;;21.61;38.25;102092.78;10370612;28;20461;-68
2022/04/10 12:16:13;;;;;;;5.78;2.13;;;;;;;22.21;38.77;102081.34;10416993;28;20076;-73
2022/04/10 12:21:14;;;;;;;2.50;1.75;;;;;;;21.95;41.24;102085.50;10413860;28;20042;-70
2022/04/10 12:26:14;;;;;;;1.45;1.35;;;;;;;22.23;37.68;102087.44;10414381;28;20087;-70
2022/04/10 12:31:15;;;;;;;3.05;1.40;;;;;;;21.78;29.64;102081.81;10415184;28;20041;-69
2022/04/10 12:36:23;;;;;;;1.50;1.40;;;;;;;19.15;34.37;102089.94;10415434;28;20083;-76
2022/04/10 12:41:27;;;;;;;1.00;1.00;;;;;;;18.20;31.86;102085.31;10413715;28;20065;-76
2022/04/10 12:46:37;;;;;;;2.13;1.67;;;;;;;19.31;30.69;102080.28;10413275;28;20037;-75
2022/04/10 12:51:48;;;;;;;4.47;1.92;;;;;;;20.15;29.88;102067.63;10413194;28;20033;-76
2022/04/10 12:56:53;;;;;;;4.07;1.45;;;;;;;19.72;33.38;102077.72;10414764;28;20044;-76
2022/04/10 13:01:53;;;;;;;1.63;1.58;;;;;;;19.90;27.61;102060.34;10412665;28;20035;-76
2022/04/10 13:06:54;;;;;;;3.92;2.65;;;;;;;19.81;38.22;102061.72;10413797;28;20045;-75
2022/04/10 13:11:54;;;;;;;2.65;2.47;;;;;;;20.37;36.04;102060.53;10414818;28;20421;-76
2022/04/10 13:17:04;;;;;;;3.33;2.88;;;;;;;20.65;40.26;102059.09;10414987;28;20064;-75
2022/04/10 13:22:05;;;;;;;2.47;2.28;;;;;;;20.16;39.89;102047.31;10397049;28;20034;-76
2022/04/10 13:27:05;;;;;;;3.72;2.85;;;;;;;19.80;33.28;102049.06;10386249;28;20077;-76
2022/04/10 13:32:06;;;;;;;4.75;3.17;;;;;;;19.23;36.60;102057.50;10371755;28;20026;-76
2022/04/10 13:37:06;;;;;;;3.03;2.83;;;;;;;18.57;31.59;102044.38;10388639;28;20536;-74
2022/04/10 13:42:08;;;;;;;3.15;2.33;;;;;;;18.95;30.60;102052.53;10411333;28;20060;-76
2022/04/10 13:47:08;;;;;;;3.60;1.80;;;;;;;18.43;36.91;102049.09;10412583;28;20045;-76
2022/04/10 13:52:09;;;;;;;16.83;3.03;;;;;;;16.84;37.08;102050.50;10413012;28;20040;-75
2022/04/10 13:57:09;;;;;;;2.67;2.47;;;;;;;17.59;42.18;102045.50;10411626;28;20140;-77
2022/04/10 14:02:10;;;;;;;5.55;2.97;;;;;;;18.31;38.33;102039.88;10412353;28;20033;-75
2022/04/10 14:07:10;;;;;;;4.82;3.20;;;;;;;18.70;38.43;102043.44;10431506;28;20064;-74
2022/04/10 14:12:10;;;;;;;7.68;3.65;;;;;;;17.99;37.33;102030.81;10402132;28;20481;-75
2022/04/10 14:17:11;;;;;;;7.60;3.47;;;;;;;17.18;41.99;102034.88;10412161;28;20500;-76
2022/04/10 14:22:12;;;;;;;5.53;3.50;;;;;;;16.06;45.14;102030.22;10413675;28;20362;-75
2022/04/10 14:27:12;;;;;;;7.28;2.90;;;;;;;15.74;41.99;102029.91;10414280;28;20038;-75
2022/04/10 14:32:13;;;;;;;4.20;3.50;;;;;;;16.35;38.49;102029.84;10413237;28;20465;-75
2022/04/10 14:37:13;;;;;;;7.57;2.95;;;;;;;17.03;42.73;102021.44;10416002;28;20061;-75
2022/04/10 14:42:14;;;;;;;3.38;2.70;;;;;;;16.93;36.37;102019.13;10417610;28;20061;-75
2022/04/10 14:47:14;;;;;;;12.88;3.50;;;;;;;16.44;39.56;102017.66;10385756;28;20053;-75
2022/04/10 14:52:14;;;;;;;4.47;3.30;;;;;;;16.43;41.72;102017.84;10419667;28;20029;-75
2022/04/10 14:57:15;;;;;;;6.60;3.45;;;;;;;15.41;38.15;102019.63;10420171;28;20045;-74
2022/04/10 15:02:15;;;;;;;2.90;2.50;;;;;;;15.06;41.34;102006.00;10419908;28;20397;-75
2022/04/10 15:07:16;;;;;;;12.02;4.22;;;;;;;14.81;42.77;102002.91;10420152;28;20037;-75
2022/04/10 15:12:16;;;;;;;15.55;5.13;;;;;;;14.66;43.87;101993.97;10419799;28;20522;-75
2022/04/10 15:17:17;;;;;;;7.13;3.47;;;;;;;14.34;45.26;101987.16;10419392;28;20048;-75
2022/04/10 15:22:17;;;;;;;3.80;3.40;;;;;;;14.18;46.92;101993.72;10419285;28;20029;-74
2022/04/10 15:27:17;;;;;;;8.85;3.17;;;;;;;14.00;47.03;101990.59;10418877;28;20053;-75
2022/04/10 15:32:18;;;;;;;5.97;2.88;;;;;;;13.95;46.98;101983.03;10419135;28;20085;-75
2022/04/10 15:37:18;;;;;;;6.13;2.88;;;;;;;13.73;47.37;101990.31;10418919;28;20076;-74
2022/04/10 15:42:19;;;;;;;6.00;3.72;;;;;;;13.51;48.32;101986.69;10419031;28;20140;-74
2022/04/10 15:47:19;;;;;;;6.57;3.72;;;;;;;13.35;48.70;101987.75;10417087;28;20484;-74
2022/04/10 15:52:20;;;;;;;7.68;4.20;;;;;;;13.33;48.22;101986.25;10417462;28;20038;-74
2022/04/10 15:57:22;;;;;;;8.00;4.30;;;;;;;13.47;48.33;101985.41;10418390;28;20037;-75
2022/04/10 16:02:23;;;;;;;3.97;3.67;;;;;;;13.41;46.29;101983.44;10416517;28;20037;-74
2022/04/10 16:07:23;;;;;;;8.70;4.25;;;;;;;13.30;48.13;101995.63;10417632;28;20401;-75
2022/04/10 16:12:24;;;;;;;4.38;3.97;;;;;;;13.05;49.27;101997.78;10417951;28;20041;-75
2022/04/10 16:17:24;;;;;;;12.55;4.03;;;;;;;12.65;48.46;101999.03;10417083;28;20124;-75
2022/04/10 16:22:24;;;;;;;5.72;4.93;;;;;;;12.39;49.21;101997.56;10416471;28;20497;-74
2022/04/10 16:32:45;;;;;;;2.42;2.22;;;;;;;11.73;48.64;101996.28;10417031;28;20038;-74
2022/04/10 16:37:46;;;;;;;6.53;2.45;;;;;;;11.57;50.08;101986.38;10417544;28;20029;-75
2022/04/10 16:42:47;;;;;;;6.95;2.63;;;;;;;11.47;50.38;101985.75;10432427;28;20057;-75
2022/04/10 16:47:47;;;;;;;6.03;2.92;;;;;;;11.40;50.76;101989.16;10414891;28;20048;-74
2022/04/10 16:52:48;;;;;;;2.42;2.25;;;;;;;11.29;48.36;101992.25;10416591;28;20045;-74
2022/04/10 16:57:48;;;;;;;2.83;1.95;;;;;;;11.22;48.45;101996.69;10416737;28;20041;-74
2022/04/10 17:02:50;;;;;;;19.17;3.03;;;;;;;11.07;48.40;101990.28;10415727;28;20397;-74
2022/04/10 17:07:50;;;;;;;5.25;1.65;;;;;;;10.99;48.55;101999.31;10414353;28;20064;-74
2022/04/10 17:12:51;;;;;;;1.73;1.63;;;;;;;10.82;49.53;101995.78;10415761;28;20470;-74
2022/04/10 17:17:51;;;;;;;3.05;2.42;;;;;;;10.64;47.94;102000.56;10414982;28;20088;-74
2022/04/10 17:22:51;;;;;;;7.28;2.50;;;;;;;10.57;49.68;101994.97;10415363;28;20116;-75
2022/04/10 17:27:52;;;;;;;3.28;1.33;;;;;;;10.45;49.30;102002.59;10414975;28;20056;-74
2022/04/10 17:32:52;;;;;;;5.32;2.17;;;;;;;10.29;48.03;101999.88;10414887;28;20046;-74
2022/04/10 17:37:53;;;;;;;2.15;1.73;;;;;;;10.21;49.68;102010.66;10414294;28;20029;-75
2022/04/10 17:42:53;;;;;;;8.60;1.77;;;;;;;10.12;49.94;102004.41;10414472;28;20053;-74
2022/04/10 17:47:53;;;;;;;4.25;1.75;;;;;;;9.97;49.62;102001.50;10415040;28;20080;-74
2022/04/10 17:52:56;;;;;;;6.68;1.70;;;;;;;9.77;49.14;102002.84;10414341;28;20096;-74
2022/04/10 17:57:56;;;;;;;4.60;1.40;;;;;;;9.61;50.40;102009.03;10413276;28;20496;-75
2022/04/10 18:02:57;;;;;;;1.77;1.67;;;;;;;9.46;49.85;102010.66;10413362;28;20033;-74
2022/04/10 18:07:57;;;;;;;1.70;1.60;;;;;;;9.32;50.58;102004.03;10415959;28;20041;-75
2022/04/10 18:12:57;;;;;;;4.10;2.17;;;;;;;9.18;51.13;102004.63;10413977;28;20045;-74
2022/04/10 18:17:58;;;;;;;2.17;1.63;;;;;;;9.02;51.09;101998.13;10419580;28;20099;-74
2022/04/10 18:23:03;;;;;;;11.13;2.17;;;;;;;8.88;51.28;102001.44;10422365;28;20400;-75
2022/04/10 18:28:05;;;;;;;6.07;1.85;;;;;;;8.78;51.17;102011.50;10421998;28;20408;-75
2022/04/10 18:33:09;;;;;;;5.13;2.03;;;;;;;8.62;51.49;102006.84;10421822;28;20029;-75
2022/04/10 18:38:09;;;;;;;1.60;1.50;;;;;;;8.44;51.87;102004.16;10421437;28;20034;-75
2022/04/10 18:43:10;;;;;;;4.25;2.50;;;;;;;8.32;52.07;101999.97;10404074;28;20053;-74
2022/04/10 18:48:13;;;;;;;6.78;2.08;;;;;;;8.19;52.30;102000.34;10436754;28;20169;-75
2022/04/10 18:53:15;;;;;;;6.82;2.30;;;;;;;8.11;52.53;102003.00;10405010;28;20036;-74
2022/04/10 18:58:16;;;;;;;3.72;1.90;;;;;;;8.03;52.75;101995.66;10421989;28;20025;-74
2022/04/10 19:03:17;;;;;;;3.95;1.25;;;;;;;7.93;53.01;102002.97;10420485;28;20037;-74
2022/04/10 19:08:17;;;;;;;1.75;1.65;;;;;;;7.86;53.34;102010.00;10420622;28;20437;-74
2022/04/10 19:13:18;;;;;;;2.53;1.67;;;;;;;7.80;53.30;102010.59;10420950;28;20037;-74
2022/04/10 19:18:18;;;;;;;11.98;4.20;;;;;;;7.75;53.44;102016.44;10418739;28;20033;-75
2022/04/10 19:23:20;;;;;;;5.70;2.75;;;;;;;7.76;54.03;102009.22;10420362;28;20068;-75
2022/04/10 19:28:21;;;;;;;2.50;2.30;;;;;;;7.63;54.44;102017.66;10419757;28;20033;-74
2022/04/10 19:33:21;;;;;;;2.78;2.25;;;;;;;7.57;55.18;102018.25;10419622;28;20037;-74
2022/04/10 19:38:22;;;;;;;4.35;3.00;;;;;;;7.50;54.89;102019.84;10420851;28;20052;-74
2022/04/10 19:43:22;;;;;;;3.92;2.13;;;;;;;7.32;57.48;102027.88;10421336;28;20085;-75
2022/04/10 19:48:24;;;;;;;4.75;3.00;;;;;;;7.26;57.35;102007.78;10421337;28;20428;-75
2022/04/10 19:53:39;;;;;;;8.50;2.58;;;;;;;7.17;58.50;102004.09;10420960;28;20071;-74
2022/04/10 19:58:40;;;;;;;4.28;3.00;;;;;;;7.14;57.45;102006.25;10418685;28;20367;-75
2022/04/10 20:03:40;;;;;;;11.18;2.97;;;;;;;7.03;58.14;102012.69;10419266;28;20037;-74
2022/04/10 20:08:41;;;;;;;9.23;3.15;;;;;;;6.93;58.73;102011.88;10419063;28;20035;-74
2022/04/10 20:13:42;;;;;;;7.88;2.55;;;;;;;6.84;60.36;102012.75;10420332;28;20495;-74
2022/04/10 20:18:43;;;;;;;6.15;2.95;;;;;;;6.81;59.64;102013.03;10416341;28;20032;-74
2022/04/10 20:23:43;;;;;;;3.58;3.05;;;;;;;6.75;59.71;102009.91;10420313;28;20048;-75
2022/04/10 20:28:44;;;;;;;7.93;2.88;;;;;;;6.64;59.77;102002.03;10416542;28;20029;-75
2022/04/10 20:33:44;;;;;;;3.92;2.63;;;;;;;6.51;62.65;102013.09;10415913;28;20041;-75
2022/04/10 20:38:45;;;;;;;4.97;3.28;;;;;;;6.46;63.41;102001.06;10414927;28;20500;-75
2022/04/10 20:43:46;;;;;;;5.07;4.30;;;;;;;6.43;64.46;102004.03;10416867;28;20548;-74
2022/04/10 20:48:46;;;;;;;3.80;2.80;;;;;;;6.46;63.11;102001.91;10417550;28;20037;-74
2022/04/10 20:53:47;;;;;;;6.63;3.83;;;;;;;6.41;63.85;101989.88;10416711;28;20041;-74
2022/04/10 20:58:47;;;;;;;11.52;4.82;;;;;;;6.32;64.00;101990.72;10416039;28;20033;-74
2022/04/10 21:03:47;;;;;;;8.85;4.18;;;;;;;6.24;64.92;101983.38;10416774;28;20524;-74
2022/04/10 21:08:48;;;;;;;7.78;3.80;;;;;;;6.22;65.53;101979.97;10416763;28;20064;-74
2022/04/10 21:13:48;;;;;;;9.15;3.88;;;;;;;6.22;65.92;101978.16;10415493;28;20060;-74
2022/04/10 21:18:49;;;;;;;8.88;5.65;;;;;;;6.15;64.84;101984.22;10416557;28;20033;-74
2022/04/10 21:23:49;;;;;;;11.10;4.88;;;;;;;6.07;65.92;101984.94;10415544;28;20063;-74
2022/04/10 21:28:49;;;;;;;4.80;4.30;;;;;;;5.97;67.76;101973.34;10414368;28;20113;-74
2022/04/10 21:33:50;;;;;;;6.93;4.80;;;;;;;6.03;67.39;101978.13;10415187;28;20053;-74
2022/04/10 21:38:50;;;;;;;7.45;5.30;;;;;;;5.98;67.06;101972.34;10415780;28;20030;-75
2022/04/10 21:43:51;;;;;;;15.30;6.05;;;;;;;6.03;69.54;101970.94;10415111;28;20053;-75
2022/04/10 21:48:52;;;;;;;8.18;5.47;;;;;;;6.09;69.22;101960.59;10413728;28;20036;-74
2022/04/10 21:53:53;;;;;;;10.10;4.30;;;;;;;6.07;69.00;101955.38;10417371;28;20034;-74
2022/04/10 21:58:53;;;;;;;5.43;4.72;;;;;;;6.08;69.97;101966.97;10397941;28;20065;-73
2022/04/10 22:03:53;;;;;;;5.68;4.75;;;;;;;6.07;67.76;101968.81;10415422;28;20037;-74
2022/04/10 22:08:54;;;;;;;13.73;4.80;;;;;;;5.96;67.72;101964.41;10397690;28;20037;-74
2022/04/10 22:13:54;;;;;;;13.85;4.65;;;;;;;5.92;67.80;101965.66;10415579;28;20455;-74
2022/04/10 22:18:55;;;;;;;4.70;4.15;;;;;;;5.92;67.63;101968.34;10415618;28;20124;-73
2022/04/10 22:23:55;;;;;;;7.15;5.15;;;;;;;5.92;67.49;101965.66;10398488;28;20374;-74
2022/04/10 22:28:55;;;;;;;15.00;5.10;;;;;;;5.92;68.14;101962.13;10416376;28;20066;-73
2022/04/10 22:33:56;;;;;;;8.02;4.57;;;;;;;5.91;69.75;101960.44;10398615;28;20450;-74
2022/04/10 22:38:56;;;;;;;4.68;4.28;;;;;;;5.91;71.17;101968.50;10417531;28;20460;-74
2022/04/10 22:43:57;;;;;;;5.32;4.78;;;;;;;5.93;71.71;101972.75;10415910;28;20058;-73
2022/04/10 22:48:57;;;;;;;3.92;3.63;;;;;;;5.98;70.73;101966.97;10414630;28;20042;-74
2022/04/10 22:53:57;;;;;;;13.68;5.97;;;;;;;5.95;71.21;101978.00;10414964;28;20061;-73
2022/04/10 22:58:58;;;;;;;18.60;6.65;;;;;;;5.91;72.47;101977.41;10431548;28;20474;-73
2022/04/10 23:03:58;;;;;;;7.95;4.55;;;;;;;5.91;73.48;101977.41;10419257;28;20037;-74
2022/04/10 23:08:58;;;;;;;6.15;5.43;;;;;;;5.93;73.47;101978.13;10421683;28;20033;-74
2022/04/10 23:13:59;;;;;;;7.05;6.32;;;;;;;5.86;71.65;101966.22;10423036;28;20068;-73